createdAt,value
2019-04-25T00:00:51.336Z,1.50
2019-04-25T00:01:49.720Z,1.30
2019-04-25T00:02:50.942Z,1.40
2019-04-25T00:03:49.673Z,1.70
2019-04-25T00:04:49.667Z,1.60
2019-04-25T00:05:49.654Z,1.70
2019-04-25T00:06:49.667Z,1.60
2019-04-25T00:07:49.628Z,1.40
2019-04-25T00:08:49.628Z,1.40
2019-04-25T00:09:49.638Z,1.60
2019-04-25T00:10:49.598Z,1.30
2019-04-25T00:11:49.614Z,1.50
2019-04-25T00:12:49.580Z,1.50
2019-04-25T00:13:49.574Z,1.40
2019-04-25T00:14:51.042Z,1.50
2019-04-25T00:15:49.558Z,1.50
2019-04-25T00:16:49.538Z,1.30
2019-04-25T00:17:49.530Z,1.50
2019-04-25T00:18:49.509Z,1.70
2019-04-25T00:19:51.025Z,1.60
2019-04-25T00:20:49.498Z,1.50
2019-04-25T00:21:49.481Z,1.30
2019-04-25T00:22:49.482Z,1.20
2019-04-25T00:23:49.484Z,1.40
2019-04-25T00:24:49.525Z,1.20
2019-04-25T00:25:49.444Z,1.30
2019-04-25T00:26:49.460Z,1.10
2019-04-25T00:27:49.423Z,1.30
2019-04-25T00:28:49.418Z,1.20
2019-04-25T00:29:49.399Z,1.10
2019-04-25T00:30:49.381Z,1.30
2019-04-25T00:31:49.389Z,1.30
2019-04-25T00:32:49.406Z,1.10
2019-04-25T00:33:49.593Z,1.20
2019-04-25T00:34:49.375Z,1.40
2019-04-25T00:35:49.607Z,1.30
2019-04-25T00:36:49.341Z,1.20
2019-04-25T00:37:49.874Z,1.10
2019-04-25T00:38:50.266Z,1.30
2019-04-25T00:39:49.288Z,1.60
2019-04-25T00:40:50.085Z,1.40
2019-04-25T00:41:49.387Z,1.50
2019-04-25T00:42:49.263Z,1.60
2019-04-25T00:43:49.608Z,1.30
2019-04-25T00:44:49.575Z,1.50
2019-04-25T00:45:49.570Z,1.70
2019-04-25T00:46:53.645Z,1.40
2019-04-25T00:47:51.857Z,1.80
2019-04-25T00:48:49.813Z,1.50
2019-04-25T00:49:50.005Z,1.50
2019-04-25T00:50:49.895Z,1.60
2019-04-25T00:51:49.165Z,1.40
2019-04-25T00:52:49.167Z,1.60
2019-04-25T00:53:49.138Z,1.20
2019-04-25T00:54:49.133Z,1.50
2019-04-25T00:55:49.129Z,1.40
2019-04-25T00:56:49.430Z,1.40
2019-04-25T00:57:49.132Z,1.40
2019-04-25T00:58:49.088Z,1.30
2019-04-25T00:59:49.078Z,1.60
2019-04-25T01:00:49.120Z,1.30
2019-04-25T01:01:49.336Z,1.40
2019-04-25T01:02:49.436Z,1.50
2019-04-25T01:03:49.322Z,1.30
2019-04-25T01:04:49.267Z,1.40
2019-04-25T01:05:49.621Z,1.50
2019-04-25T01:06:49.723Z,1.40
2019-04-25T01:07:49.788Z,1.30
2019-04-25T01:08:49.807Z,1.30
2019-04-25T01:09:49.915Z,1.10
2019-04-25T01:10:48.964Z,1.20
2019-04-25T01:11:48.950Z,1.30
2019-04-25T01:12:48.938Z,1.30
2019-04-25T01:13:48.944Z,1.30
2019-04-25T01:14:48.919Z,1.30
2019-04-25T01:15:48.929Z,1.20
2019-04-25T01:16:48.900Z,1.20
2019-04-25T01:17:48.939Z,1.00
2019-04-25T01:18:48.920Z,1.30
2019-04-25T01:19:48.933Z,1.20
2019-04-25T01:20:49.059Z,1.20
2019-04-25T01:21:49.147Z,1.20
2019-04-25T01:22:49.314Z,1.10
2019-04-25T01:23:49.408Z,1.10
2019-04-25T01:24:49.416Z,1.10
2019-04-25T01:25:49.485Z,1.00
2019-04-25T01:26:49.603Z,1.20
2019-04-25T01:27:49.714Z,1.10
2019-04-25T01:28:49.681Z,1.40
2019-04-25T01:29:48.780Z,1.20
2019-04-25T01:30:48.746Z,1.10
2019-04-25T01:31:48.741Z,1.10
2019-04-25T01:32:48.720Z,1.30
2019-04-25T01:33:48.716Z,1.30
2019-04-25T01:34:48.726Z,1.30
2019-04-25T01:35:48.718Z,1.40
2019-04-25T01:36:48.700Z,1.20
2019-04-25T01:37:49.009Z,1.40
2019-04-25T01:38:49.113Z,1.40
2019-04-25T01:39:48.957Z,1.30
2019-04-25T01:40:49.500Z,1.20
2019-04-25T01:41:49.175Z,1.40
2019-04-25T01:42:49.569Z,1.30
2019-04-25T01:43:51.468Z,1.40
2019-04-25T01:44:49.435Z,1.30
2019-04-25T01:45:49.654Z,1.60
2019-04-25T01:46:48.592Z,1.20
2019-04-25T01:47:49.291Z,1.80
2019-04-25T01:48:48.656Z,1.40
2019-04-25T01:49:48.881Z,1.70
2019-04-25T01:50:49.631Z,1.60
2019-04-25T01:51:48.895Z,1.40
2019-04-25T01:52:48.957Z,1.60
2019-04-25T01:53:49.094Z,1.50
2019-04-25T01:54:49.312Z,1.50
2019-04-25T01:55:55.848Z,1.50
2019-04-25T01:56:49.473Z,1.60
2019-04-25T01:57:49.326Z,1.50
2019-04-25T01:58:48.887Z,1.40
2019-04-25T01:59:49.775Z,1.70
2019-04-25T02:00:48.437Z,1.50
2019-04-25T02:01:48.810Z,1.40
2019-04-25T02:02:48.407Z,1.40
2019-04-25T02:03:48.393Z,1.50
2019-04-25T02:04:48.422Z,1.60
2019-04-25T02:05:48.371Z,1.40
2019-04-25T02:06:48.373Z,1.40
2019-04-25T02:07:48.356Z,1.30
2019-04-25T02:08:48.344Z,1.30
2019-04-25T02:09:48.334Z,1.40
2019-04-25T02:10:48.345Z,1.30
2019-04-25T02:11:48.310Z,1.50
2019-04-25T02:12:48.303Z,1.40
2019-04-25T02:13:48.290Z,1.30
2019-04-25T02:14:48.285Z,1.40
2019-04-25T02:15:48.290Z,1.30
2019-04-25T02:16:48.252Z,1.40
2019-04-25T02:17:48.250Z,1.60
2019-04-25T02:18:48.238Z,1.50
2019-04-25T02:19:48.233Z,1.20
2019-04-25T02:20:48.244Z,1.20
2019-04-25T02:21:48.206Z,1.40
2019-04-25T02:22:48.189Z,1.40
2019-04-25T02:23:48.177Z,1.50
2019-04-25T02:24:48.164Z,1.50
2019-04-25T02:25:48.185Z,1.20
2019-04-25T02:26:48.151Z,1.20
2019-04-25T02:27:48.139Z,1.30
2019-04-25T02:28:48.121Z,1.30
2019-04-25T02:29:48.113Z,1.50
2019-04-25T02:30:48.143Z,1.40
2019-04-25T02:31:48.101Z,1.20
2019-04-25T02:32:48.091Z,1.30
2019-04-25T02:33:48.078Z,1.30
2019-04-25T02:34:48.059Z,1.20
2019-04-25T02:35:48.066Z,1.20
2019-04-25T02:36:48.038Z,1.30
2019-04-25T02:37:48.031Z,1.30
2019-04-25T02:38:48.027Z,1.10
2019-04-25T02:39:48.015Z,1.10
2019-04-25T02:40:48.044Z,1.20
2019-04-25T02:41:47.988Z,1.20
2019-04-25T02:42:47.977Z,1.10
2019-04-25T02:43:47.965Z,1.00
2019-04-25T02:44:47.957Z,1.10
2019-04-25T02:45:47.977Z,1.00
2019-04-25T02:46:47.956Z,1.10
2019-04-25T02:47:47.922Z,1.20
2019-04-25T02:48:47.910Z,1.20
2019-04-25T02:49:47.905Z,1.30
2019-04-25T02:50:47.933Z,1.00
2019-04-25T02:51:47.881Z,1.30
2019-04-25T02:52:47.874Z,1.20
2019-04-25T02:53:47.865Z,1.10
2019-04-25T02:54:47.845Z,1.10
2019-04-25T02:55:47.857Z,1.30
2019-04-25T02:56:47.827Z,1.10
2019-04-25T02:57:47.821Z,1.40
2019-04-25T02:58:47.822Z,1.10
2019-04-25T02:59:47.801Z,1.30
2019-04-25T03:00:57.295Z,1.40
2019-04-25T03:01:48.769Z,1.40
2019-04-25T03:02:47.765Z,1.10
2019-04-25T03:03:47.766Z,1.10
2019-04-25T03:04:47.874Z,1.20
2019-04-25T03:05:48.057Z,1.10
2019-04-25T03:06:47.764Z,1.20
2019-04-25T03:07:47.750Z,1.50
2019-04-25T03:08:47.695Z,1.30
2019-04-25T03:09:47.685Z,1.30
2019-04-25T03:10:47.675Z,1.30
2019-04-25T03:11:47.952Z,1.20
2019-04-25T03:12:47.660Z,1.30
2019-04-25T03:13:47.658Z,1.30
2019-04-25T03:14:47.632Z,1.20
2019-04-25T03:15:47.617Z,1.30
2019-04-25T03:16:47.646Z,1.50
2019-04-25T03:17:47.603Z,1.30
2019-04-25T03:18:47.598Z,1.40
2019-04-25T03:19:47.580Z,1.20
2019-04-25T03:20:47.567Z,1.40
2019-04-25T03:21:47.577Z,1.40
2019-04-25T03:22:47.546Z,1.30
2019-04-25T03:23:47.552Z,1.20
2019-04-25T03:24:47.530Z,1.40
2019-04-25T03:25:47.517Z,1.20
2019-04-25T03:26:47.542Z,1.60
2019-04-25T03:27:47.495Z,1.50
2019-04-25T03:28:47.478Z,1.40
2019-04-25T03:29:47.470Z,1.50
2019-04-25T03:30:47.469Z,1.40
2019-04-25T03:31:47.479Z,1.30
2019-04-25T03:32:51.288Z,1.40
2019-04-25T03:33:47.439Z,1.40
2019-04-25T03:34:47.422Z,1.40
2019-04-25T03:35:47.415Z,1.30
2019-04-25T03:36:47.433Z,1.20
2019-04-25T03:37:47.397Z,1.30
2019-04-25T03:38:47.375Z,1.50
2019-04-25T03:39:47.360Z,1.30
2019-04-25T03:40:47.351Z,1.60
2019-04-25T03:41:47.362Z,1.20
2019-04-25T03:42:47.334Z,1.20
2019-04-25T03:43:47.326Z,1.20
2019-04-25T03:44:47.312Z,1.30
2019-04-25T03:45:47.305Z,1.50
2019-04-25T03:46:47.308Z,1.20
2019-04-25T03:47:47.283Z,1.20
2019-04-25T03:48:47.271Z,1.20
2019-04-25T03:49:47.280Z,1.80
2019-04-25T03:50:47.247Z,1.30
2019-04-25T03:51:47.255Z,1.10
2019-04-25T03:52:47.250Z,1.00
2019-04-25T03:53:47.212Z,1.00
2019-04-25T03:54:47.208Z,1.50
2019-04-25T03:55:47.197Z,1.10
2019-04-25T03:56:53.527Z,1.10
2019-04-25T03:57:48.182Z,1.10
2019-04-25T03:58:47.158Z,1.30
2019-04-25T03:59:47.169Z,1.00
2019-04-25T04:00:47.136Z,1.20
2019-04-25T04:01:47.128Z,1.40
2019-04-25T04:02:47.142Z,1.00
2019-04-25T04:03:47.110Z,1.20
2019-04-25T04:04:47.094Z,1.10
2019-04-25T04:05:47.086Z,1.00
2019-04-25T04:06:47.082Z,1.20
2019-04-25T04:07:47.089Z,1.30
2019-04-25T04:08:47.066Z,1.10
2019-04-25T04:09:47.045Z,1.10
2019-04-25T04:10:47.032Z,1.30
2019-04-25T04:11:47.016Z,1.10
2019-04-25T04:12:47.036Z,1.00
2019-04-25T04:13:46.998Z,1.10
2019-04-25T04:14:47.011Z,1.20
2019-04-25T04:15:46.984Z,1.20
2019-04-25T04:16:46.976Z,1.10
2019-04-25T04:17:46.977Z,1.20
2019-04-25T04:18:46.949Z,1.60
2019-04-25T04:19:46.937Z,1.10
2019-04-25T04:20:46.929Z,1.20
2019-04-25T04:21:46.919Z,1.20
2019-04-25T04:22:46.941Z,1.00
2019-04-25T04:23:46.891Z,1.60
2019-04-25T04:24:46.877Z,1.20
2019-04-25T04:25:46.871Z,1.20
2019-04-25T04:26:46.872Z,1.20
2019-04-25T04:27:46.883Z,1.20
2019-04-25T04:28:46.843Z,1.50
2019-04-25T04:29:46.832Z,1.30
2019-04-25T04:30:46.819Z,1.20
2019-04-25T04:31:46.810Z,1.20
2019-04-25T04:32:46.796Z,1.30
2019-04-25T04:33:46.803Z,1.30
2019-04-25T04:34:46.783Z,1.20
2019-04-25T04:35:46.789Z,1.10
2019-04-25T04:36:46.796Z,1.10
2019-04-25T04:37:46.743Z,1.30
2019-04-25T04:38:46.792Z,1.30
2019-04-25T04:39:46.732Z,1.20
2019-04-25T04:40:46.722Z,1.20
2019-04-25T04:41:46.703Z,1.30
2019-04-25T04:42:46.719Z,1.10
2019-04-25T04:43:46.714Z,1.20
2019-04-25T04:44:46.663Z,1.20
2019-04-25T04:45:46.674Z,1.00
2019-04-25T04:46:46.650Z,1.20
2019-04-25T04:47:46.639Z,1.30
2019-04-25T04:48:46.648Z,1.10
2019-04-25T04:49:46.613Z,1.20
2019-04-25T04:50:46.600Z,1.30
2019-04-25T04:51:46.588Z,1.10
2019-04-25T04:52:46.584Z,1.10
2019-04-25T04:53:46.590Z,1.10
2019-04-25T04:54:46.562Z,1.20
2019-04-25T04:55:46.546Z,1.20
2019-04-25T04:56:46.532Z,1.00
2019-04-25T04:57:46.532Z,1.30
2019-04-25T04:58:46.549Z,0.90
2019-04-25T04:59:46.509Z,1.00
2019-04-25T05:00:46.495Z,0.90
2019-04-25T05:01:46.477Z,1.00
2019-04-25T05:02:46.482Z,1.10
2019-04-25T05:03:46.487Z,1.10
2019-04-25T05:04:46.454Z,0.90
2019-04-25T05:05:46.446Z,1.20
2019-04-25T05:06:46.433Z,0.90
2019-04-25T05:07:46.428Z,1.20
2019-04-25T05:08:46.494Z,1.20
2019-04-25T05:09:46.398Z,1.20
2019-04-25T05:10:46.383Z,1.20
2019-04-25T05:11:46.381Z,1.10
2019-04-25T05:12:46.373Z,1.40
2019-04-25T05:13:46.358Z,1.40
2019-04-25T05:14:46.370Z,1.50
2019-04-25T05:15:46.343Z,1.40
2019-04-25T05:16:46.348Z,1.40
2019-04-25T05:17:46.321Z,1.50
2019-04-25T05:18:46.301Z,1.50
2019-04-25T05:19:46.301Z,1.60
2019-04-25T05:20:46.277Z,1.50
2019-04-25T05:21:46.284Z,1.70
2019-04-25T05:22:46.261Z,1.50
2019-04-25T05:23:46.250Z,1.60
2019-04-25T05:24:46.235Z,1.60
2019-04-25T05:25:46.225Z,1.60
2019-04-25T05:26:46.240Z,1.60
2019-04-25T05:27:59.417Z,1.60
2019-04-25T05:28:47.216Z,1.60
2019-04-25T05:29:46.187Z,1.50
2019-04-25T05:30:46.202Z,1.60
2019-04-25T05:31:46.160Z,1.80
2019-04-25T05:32:46.266Z,1.60
2019-04-25T05:33:46.138Z,1.80
2019-04-25T05:34:49.147Z,1.50
2019-04-25T05:35:46.122Z,1.90
2019-04-25T05:36:46.135Z,1.70
2019-04-25T05:37:46.121Z,1.50
2019-04-25T05:38:46.080Z,1.40
2019-04-25T05:39:46.073Z,1.40
2019-04-25T05:40:46.077Z,1.50
2019-04-25T05:41:46.081Z,1.50
2019-04-25T05:42:46.063Z,1.40
2019-04-25T05:43:46.029Z,1.60
2019-04-25T05:44:46.020Z,1.10
2019-04-25T05:45:46.005Z,1.30
2019-04-25T05:46:46.023Z,1.30
2019-04-25T05:47:46.012Z,1.10
2019-04-25T05:48:45.979Z,1.10
2019-04-25T05:49:45.969Z,1.00
2019-04-25T05:50:45.952Z,1.00
2019-04-25T05:51:45.943Z,1.20
2019-04-25T05:52:46.066Z,0.90
2019-04-25T05:53:47.177Z,1.00
2019-04-25T05:54:45.917Z,1.00
2019-04-25T05:55:45.908Z,0.90
2019-04-25T05:56:45.889Z,0.90
2019-04-25T05:57:50.010Z,1.10
2019-04-25T05:58:45.902Z,0.90
2019-04-25T05:59:45.863Z,0.90
2019-04-25T06:00:45.852Z,1.00
2019-04-25T06:01:45.840Z,1.00
2019-04-25T06:02:46.209Z,0.90
2019-04-25T06:03:45.815Z,1.10
2019-04-25T06:04:45.821Z,0.90
2019-04-25T06:05:45.814Z,1.00
2019-04-25T06:06:45.790Z,1.00
2019-04-25T06:07:45.797Z,0.90
2019-04-25T06:08:45.786Z,1.00
2019-04-25T06:09:45.759Z,1.00
2019-04-25T06:10:45.755Z,1.00
2019-04-25T06:11:45.728Z,1.00
2019-04-25T06:12:45.721Z,1.10
2019-04-25T06:13:45.712Z,0.70
2019-04-25T06:14:45.692Z,0.90
2019-04-25T06:15:45.723Z,0.80
2019-04-25T06:16:45.674Z,0.90
2019-04-25T06:17:45.658Z,0.70
2019-04-25T06:18:45.669Z,0.70
2019-04-25T06:19:45.643Z,1.00
2019-04-25T06:20:45.637Z,0.90
2019-04-25T06:21:45.643Z,0.80
2019-04-25T06:22:45.605Z,0.80
2019-04-25T06:23:46.037Z,0.90
2019-04-25T06:24:45.590Z,0.70
2019-04-25T06:25:45.574Z,0.80
2019-04-25T06:26:45.570Z,0.80
2019-04-25T06:27:56.497Z,0.90
2019-04-25T06:28:53.863Z,0.90
2019-04-25T06:29:57.630Z,0.70
2019-04-25T06:30:46.546Z,0.90
2019-04-25T06:31:45.517Z,1.00
2019-04-25T06:32:45.505Z,0.80
2019-04-25T06:33:45.661Z,0.80
2019-04-25T06:34:45.478Z,0.90
2019-04-25T06:35:45.469Z,0.80
2019-04-25T06:36:45.486Z,0.90
2019-04-25T06:37:45.444Z,0.70
2019-04-25T06:38:45.460Z,0.80
2019-04-25T06:39:45.427Z,0.90
2019-04-25T06:40:45.417Z,0.90
2019-04-25T06:41:45.416Z,1.00
2019-04-25T06:42:46.837Z,1.00
2019-04-25T06:43:45.404Z,0.90
2019-04-25T06:44:45.410Z,0.80
2019-04-25T06:45:45.369Z,0.80
2019-04-25T06:46:45.385Z,0.80
2019-04-25T06:47:45.342Z,0.90
2019-04-25T06:48:45.695Z,0.90
2019-04-25T06:49:45.315Z,0.90
2019-04-25T06:50:45.345Z,0.90
2019-04-25T06:51:46.118Z,0.80
2019-04-25T06:52:45.287Z,0.90
2019-04-25T06:53:45.280Z,1.10
2019-04-25T06:54:45.261Z,1.10
2019-04-25T06:55:45.256Z,0.80
2019-04-25T06:56:45.263Z,1.00
2019-04-25T06:57:45.229Z,0.90
2019-04-25T06:58:45.243Z,1.70
2019-04-25T06:59:45.209Z,0.90
2019-04-25T07:00:57.508Z,1.10
2019-04-25T07:01:46.182Z,1.10
2019-04-25T07:02:45.196Z,1.50
2019-04-25T07:03:45.170Z,1.20
2019-04-25T07:04:45.692Z,1.30
2019-04-25T07:05:45.148Z,0.90
2019-04-25T07:06:45.629Z,0.90
2019-04-25T07:07:45.469Z,1.00
2019-04-25T07:08:45.110Z,1.10
2019-04-25T07:09:45.146Z,1.50
2019-04-25T07:10:45.094Z,1.20
2019-04-25T07:11:48.087Z,1.00
2019-04-25T07:12:45.094Z,0.90
2019-04-25T07:13:45.063Z,1.00
2019-04-25T07:14:45.065Z,1.00
2019-04-25T07:15:45.059Z,0.90
2019-04-25T07:16:45.030Z,0.80
2019-04-25T07:17:45.770Z,1.00
2019-04-25T07:18:44.999Z,0.90
2019-04-25T07:19:45.010Z,1.00
2019-04-25T07:20:45.331Z,0.90
2019-04-25T07:21:44.975Z,1.00
2019-04-25T07:22:44.967Z,0.80
2019-04-25T07:23:46.270Z,1.10
2019-04-25T07:24:44.978Z,0.80
2019-04-25T07:25:44.937Z,0.90
2019-04-25T07:26:44.916Z,0.80
2019-04-25T07:27:44.919Z,0.90
2019-04-25T07:28:44.895Z,1.10
2019-04-25T07:29:44.900Z,0.90
2019-04-25T07:30:50.182Z,0.80
2019-04-25T07:31:45.863Z,0.90
2019-04-25T07:32:44.871Z,0.90
2019-04-25T07:33:44.839Z,0.90
2019-04-25T07:34:44.854Z,0.90
2019-04-25T07:35:44.823Z,0.80
2019-04-25T07:36:45.629Z,1.10
2019-04-25T07:37:44.830Z,0.80
2019-04-25T07:38:44.784Z,0.90
2019-04-25T07:39:44.793Z,0.80
2019-04-25T07:40:44.774Z,0.80
2019-04-25T07:41:44.753Z,0.80
2019-04-25T07:42:44.755Z,0.70
2019-04-25T07:43:44.735Z,0.80
2019-04-25T07:44:51.678Z,0.90
2019-04-25T07:45:45.736Z,0.90
2019-04-25T07:46:44.700Z,0.80
2019-04-25T07:47:44.714Z,0.80
2019-04-25T07:48:44.704Z,1.00
2019-04-25T07:49:44.672Z,0.80
2019-04-25T07:50:44.684Z,0.90
2019-04-25T07:51:45.403Z,0.90
2019-04-25T07:52:44.637Z,0.80
2019-04-25T07:53:44.623Z,1.00
2019-04-25T07:54:44.627Z,0.70
2019-04-25T07:55:44.624Z,0.70
2019-04-25T07:56:44.594Z,0.90
2019-04-25T07:57:44.604Z,0.90
2019-04-25T07:58:50.545Z,1.00
2019-04-25T07:59:45.560Z,0.80
2019-04-25T08:00:44.573Z,0.90
2019-04-25T08:01:44.535Z,0.70
2019-04-25T08:02:44.578Z,0.80
2019-04-25T08:03:44.519Z,0.80
2019-04-25T08:04:44.505Z,0.80
2019-04-25T08:05:44.500Z,0.90
2019-04-25T08:06:44.672Z,0.80
2019-04-25T08:07:44.479Z,0.80
2019-04-25T08:08:44.484Z,0.80
2019-04-25T08:09:44.458Z,1.40
2019-04-25T08:10:45.362Z,1.00
2019-04-25T08:11:44.429Z,0.70
2019-04-25T08:12:46.000Z,0.90
2019-04-25T08:13:44.433Z,0.60
2019-04-25T08:14:45.933Z,0.80
2019-04-25T08:15:44.409Z,0.60
2019-04-25T08:16:44.378Z,0.60
2019-04-25T08:17:44.369Z,0.90
2019-04-25T08:18:44.375Z,0.70
2019-04-25T08:19:44.360Z,0.70
2019-04-25T08:20:44.357Z,0.70
2019-04-25T08:21:45.208Z,0.70
2019-04-25T08:22:55.720Z,0.70
2019-04-25T08:23:45.301Z,0.50
2019-04-25T08:24:44.310Z,0.70
2019-04-25T08:25:44.299Z,0.60
2019-04-25T08:26:44.274Z,0.80
2019-04-25T08:27:45.076Z,0.80
2019-04-25T08:28:55.030Z,0.50
2019-04-25T08:29:46.518Z,0.60
2019-04-25T08:30:44.230Z,0.80
2019-04-25T08:31:45.260Z,0.60
2019-04-25T08:32:44.213Z,0.60
2019-04-25T08:33:46.582Z,0.60
2019-04-25T08:34:44.724Z,0.80
2019-04-25T08:36:03.071Z,0.70
2019-04-25T08:36:45.769Z,0.70
2019-04-25T08:37:44.266Z,0.70
2019-04-25T08:38:44.786Z,0.60
2019-04-25T08:39:45.187Z,0.70
2019-04-25T08:40:44.254Z,0.70
2019-04-25T08:41:45.571Z,0.70
2019-04-25T08:42:44.261Z,0.50
2019-04-25T08:43:45.465Z,0.70
2019-04-25T08:44:44.978Z,0.70
2019-04-25T08:45:44.334Z,0.50
2019-04-25T08:46:47.118Z,0.60
2019-04-25T08:47:44.066Z,0.70
2019-04-25T08:48:44.422Z,0.60
2019-04-25T08:49:45.884Z,0.70
2019-04-25T08:50:44.551Z,0.50
2019-04-25T08:51:44.538Z,0.60
2019-04-25T08:52:44.361Z,0.60
2019-04-25T08:53:45.034Z,0.60
2019-04-25T08:54:47.255Z,0.60
2019-04-25T08:55:45.582Z,0.70
2019-04-25T08:56:44.093Z,0.40
2019-04-25T08:57:44.115Z,0.60
2019-04-25T08:58:44.593Z,0.60
2019-04-25T08:59:49.138Z,0.60
2019-04-25T09:00:44.943Z,0.60
2019-04-25T09:01:45.168Z,0.70
2019-04-25T09:02:44.918Z,0.40
2019-04-25T09:03:44.402Z,0.60
2019-04-25T09:04:44.611Z,0.60
2019-04-25T09:05:45.950Z,0.50
2019-04-25T09:06:44.337Z,0.50
2019-04-25T09:07:44.496Z,0.40
2019-04-25T09:08:46.442Z,0.60
2019-04-25T09:09:45.122Z,0.60
2019-04-25T09:10:44.913Z,0.60
2019-04-25T09:11:44.651Z,0.60
2019-04-25T09:12:44.312Z,0.50
2019-04-25T09:13:44.953Z,0.50
2019-04-25T09:14:46.251Z,0.50
2019-04-25T09:15:45.603Z,0.80
2019-04-25T09:16:44.867Z,0.60
2019-04-25T09:17:44.455Z,0.60
2019-04-25T09:18:44.362Z,0.50
2019-04-25T09:19:44.463Z,0.60
2019-04-25T09:20:46.370Z,0.60
2019-04-25T09:21:48.121Z,0.70
2019-04-25T09:22:45.574Z,0.60
2019-04-25T09:23:44.803Z,0.70
2019-04-25T09:24:44.412Z,0.60
2019-04-25T09:25:45.104Z,0.80
2019-04-25T09:26:44.259Z,0.60
2019-04-25T09:27:45.394Z,0.50
2019-04-25T09:28:45.499Z,0.50
2019-04-25T09:29:45.231Z,0.50
2019-04-25T09:30:44.863Z,0.50
2019-04-25T09:31:45.152Z,0.50
2019-04-25T09:32:44.605Z,0.40
2019-04-25T09:33:45.449Z,0.50
2019-04-25T09:34:43.811Z,0.60
2019-04-25T09:35:45.765Z,0.60
2019-04-25T09:36:44.026Z,0.50
2019-04-25T09:37:44.951Z,0.60
2019-04-25T09:38:47.003Z,0.40
2019-04-25T09:39:44.327Z,0.50
2019-04-25T09:40:44.485Z,0.40
2019-04-25T09:41:44.136Z,0.40
2019-04-25T09:42:45.053Z,0.50
2019-04-25T09:43:45.599Z,0.60
2019-04-25T09:44:44.180Z,0.40
2019-04-25T09:45:43.975Z,0.50
2019-04-25T09:46:46.472Z,0.40
2019-04-25T09:47:43.799Z,0.60
2019-04-25T09:48:44.607Z,0.40
2019-04-25T09:49:44.820Z,0.60
2019-04-25T09:50:44.216Z,0.50
2019-04-25T09:51:44.599Z,0.50
2019-04-25T09:52:44.569Z,0.60
2019-04-25T09:53:49.329Z,0.50
2019-04-25T09:54:45.192Z,0.40
2019-04-25T09:55:44.096Z,0.80
2019-04-25T09:56:44.819Z,0.50
2019-04-25T09:57:44.551Z,0.60
2019-04-25T09:58:44.642Z,0.50
2019-04-25T09:59:44.000Z,0.50
2019-04-25T10:00:44.753Z,0.40
2019-04-25T10:01:43.963Z,0.50
2019-04-25T10:02:43.317Z,0.50
2019-04-25T10:03:44.450Z,0.50
2019-04-25T10:04:45.209Z,0.50
2019-04-25T10:05:43.283Z,0.40
2019-04-25T10:06:44.649Z,0.40
2019-04-25T10:07:45.957Z,0.60
2019-04-25T10:08:45.090Z,0.50
2019-04-25T10:09:44.594Z,0.40
2019-04-25T10:10:43.240Z,0.50
2019-04-25T10:11:43.953Z,0.60
2019-04-25T10:12:44.206Z,0.40
2019-04-25T10:13:43.802Z,0.40
2019-04-25T10:14:45.218Z,0.60
2019-04-25T10:15:44.722Z,0.40
2019-04-25T10:16:44.496Z,0.60
2019-04-25T10:17:43.929Z,0.60
2019-04-25T10:18:43.759Z,0.50
2019-04-25T10:19:43.509Z,0.40
2019-04-25T10:20:44.869Z,0.60
2019-04-25T10:21:43.129Z,0.50
2019-04-25T10:22:44.565Z,0.60
2019-04-25T10:23:44.083Z,0.50
2019-04-25T10:24:43.131Z,0.50
2019-04-25T10:25:44.129Z,0.60
2019-04-25T10:26:44.062Z,0.40
2019-04-25T10:27:46.468Z,0.50
2019-04-25T10:28:45.140Z,0.50
2019-04-25T10:29:50.930Z,0.40
2019-04-25T10:30:44.062Z,0.50
2019-04-25T10:31:44.281Z,0.50
2019-04-25T10:32:44.300Z,0.50
2019-04-25T10:33:45.272Z,0.50
2019-04-25T10:34:44.680Z,0.50
2019-04-25T10:35:50.686Z,0.50
2019-04-25T10:36:45.371Z,0.50
2019-04-25T10:37:43.722Z,0.50
2019-04-25T10:38:46.251Z,0.60
2019-04-25T10:39:44.824Z,0.40
2019-04-25T10:40:44.836Z,0.50
2019-04-25T10:41:44.826Z,0.50
2019-04-25T10:42:46.470Z,0.50
2019-04-25T10:43:43.906Z,0.50
2019-04-25T10:44:44.830Z,0.50
2019-04-25T10:45:44.771Z,0.50
2019-04-25T10:46:45.717Z,0.60
2019-04-25T10:47:44.231Z,0.40
2019-04-25T10:48:43.763Z,0.50
2019-04-25T10:49:44.671Z,0.60
2019-04-25T10:50:43.884Z,0.40
2019-04-25T10:51:44.677Z,0.60
2019-04-25T10:52:45.756Z,0.50
2019-04-25T10:53:45.392Z,0.60
2019-04-25T10:54:45.301Z,0.80
2019-04-25T10:55:42.917Z,0.50
2019-04-25T10:56:45.708Z,0.50
2019-04-25T10:57:43.656Z,0.60
2019-04-25T10:58:44.476Z,0.50
2019-04-25T10:59:54.588Z,0.40
2019-04-25T11:00:46.148Z,0.40
2019-04-25T11:01:44.675Z,0.40
2019-04-25T11:02:43.784Z,0.40
2019-04-25T11:03:44.520Z,0.50
2019-04-25T11:04:44.564Z,0.40
2019-04-25T11:05:42.838Z,0.40
2019-04-25T11:06:45.361Z,0.60
2019-04-25T11:07:42.665Z,0.50
2019-04-25T11:08:42.654Z,0.50
2019-04-25T11:09:44.969Z,0.50
2019-04-25T11:10:44.228Z,0.50
2019-04-25T11:11:43.137Z,0.50
2019-04-25T11:12:44.234Z,0.60
2019-04-25T11:13:44.045Z,0.50
2019-04-25T11:14:42.589Z,0.40
2019-04-25T11:15:43.371Z,0.60
2019-04-25T11:16:45.225Z,0.50
2019-04-25T11:17:45.175Z,0.40
2019-04-25T11:18:44.856Z,0.40
2019-04-25T11:19:44.408Z,0.60
2019-04-25T11:20:43.094Z,0.50
2019-04-25T11:21:44.288Z,0.60
2019-04-25T11:22:44.621Z,0.40
2019-04-25T11:23:44.760Z,0.50
2019-04-25T11:24:42.485Z,0.40
2019-04-25T11:25:43.420Z,0.50
2019-04-25T11:26:44.661Z,0.60
2019-04-25T11:27:46.626Z,0.40
2019-04-25T11:28:45.146Z,0.50
2019-04-25T11:29:43.087Z,0.50
2019-04-25T11:30:45.220Z,0.70
2019-04-25T11:31:44.806Z,0.50
2019-04-25T11:32:43.713Z,0.50
2019-04-25T11:33:43.938Z,0.50
2019-04-25T11:34:43.389Z,0.40
2019-04-25T11:35:42.368Z,0.50
2019-04-25T11:36:42.984Z,0.60
2019-04-25T11:37:43.184Z,0.80
2019-04-25T11:38:42.682Z,0.60
2019-04-25T11:39:44.370Z,0.70
2019-04-25T11:40:46.560Z,0.50
2019-04-25T11:41:45.759Z,0.50
2019-04-25T11:42:43.218Z,0.50
2019-04-25T11:43:44.967Z,0.60
2019-04-25T11:44:44.958Z,0.40
2019-04-25T11:45:42.258Z,0.50
2019-04-25T11:46:44.453Z,0.50
2019-04-25T11:47:43.131Z,0.60
2019-04-25T11:48:44.201Z,0.60
2019-04-25T11:49:43.695Z,0.50
2019-04-25T11:50:44.098Z,0.50
2019-04-25T11:51:44.853Z,0.60
2019-04-25T11:52:43.717Z,0.60
2019-04-25T11:53:43.953Z,0.60
2019-04-25T11:54:45.423Z,0.40
2019-04-25T11:55:42.575Z,0.40
2019-04-25T11:56:43.337Z,0.40
2019-04-25T11:57:45.314Z,0.40
2019-04-25T11:58:45.570Z,0.50
2019-04-25T11:59:44.561Z,0.50
2019-04-25T12:00:42.944Z,0.40
2019-04-25T12:01:44.969Z,0.40
2019-04-25T12:02:43.895Z,0.70
2019-04-25T12:03:42.059Z,0.30
2019-04-25T12:04:42.692Z,0.50
2019-04-25T12:05:42.966Z,0.50
2019-04-25T12:06:43.125Z,0.40
2019-04-25T12:07:43.259Z,0.40
2019-04-25T12:08:42.006Z,0.30
2019-04-25T12:09:43.150Z,0.60
2019-04-25T12:10:43.129Z,0.40
2019-04-25T12:11:44.517Z,0.50
2019-04-25T12:12:44.173Z,0.50
2019-04-25T12:13:44.550Z,0.40
2019-04-25T12:14:44.171Z,0.40
2019-04-25T12:15:43.161Z,0.60
2019-04-25T12:16:46.103Z,0.40
2019-04-25T12:17:43.848Z,0.60
2019-04-25T12:18:44.779Z,0.40
2019-04-25T12:19:42.914Z,0.50
2019-04-25T12:20:41.891Z,0.50
2019-04-25T12:21:41.869Z,0.40
2019-04-25T12:22:43.548Z,0.40
2019-04-25T12:23:41.871Z,0.40
2019-04-25T12:24:43.528Z,0.40
2019-04-25T12:25:41.831Z,0.40
2019-04-25T12:26:43.736Z,0.30
2019-04-25T12:27:41.823Z,0.40
2019-04-25T12:28:41.793Z,0.40
2019-04-25T12:29:41.791Z,0.50
2019-04-25T12:30:41.800Z,0.60
2019-04-25T12:31:41.773Z,0.50
2019-04-25T12:32:41.757Z,0.40
2019-04-25T12:33:43.385Z,0.40
2019-04-25T12:34:41.730Z,0.50
2019-04-25T12:35:43.525Z,0.50
2019-04-25T12:36:41.720Z,0.50
2019-04-25T12:37:41.701Z,0.40
2019-04-25T12:38:41.687Z,0.40
2019-04-25T12:39:41.699Z,0.40
2019-04-25T12:40:43.277Z,0.50
2019-04-25T12:41:41.657Z,0.50
2019-04-25T12:42:41.648Z,0.40
2019-04-25T12:43:41.649Z,0.40
2019-04-25T12:44:41.653Z,0.40
2019-04-25T12:45:43.298Z,0.60
2019-04-25T12:46:41.620Z,0.50
2019-04-25T12:47:41.616Z,0.50
2019-04-25T12:48:43.114Z,0.40
2019-04-25T12:49:41.623Z,0.50
2019-04-25T12:50:41.565Z,0.40
2019-04-25T12:51:41.582Z,0.40
2019-04-25T12:52:43.205Z,0.50
2019-04-25T12:53:41.550Z,0.30
2019-04-25T12:54:41.525Z,0.40
2019-04-25T12:55:41.536Z,0.40
2019-04-25T12:56:43.232Z,0.40
2019-04-25T12:57:41.509Z,0.40
2019-04-25T12:58:41.477Z,0.40
2019-04-25T12:59:41.465Z,0.30
2019-04-25T13:00:47.891Z,0.50
2019-04-25T13:01:43.410Z,0.40
2019-04-25T13:02:41.464Z,0.40
2019-04-25T13:03:41.427Z,0.40
2019-04-25T13:04:41.419Z,0.50
2019-04-25T13:05:41.424Z,0.40
2019-04-25T13:06:41.412Z,0.50
2019-04-25T13:07:41.377Z,0.60
2019-04-25T13:08:41.395Z,0.40
2019-04-25T13:09:41.364Z,0.50
2019-04-25T13:10:41.348Z,0.50
2019-04-25T13:11:41.335Z,0.50
2019-04-25T13:12:41.323Z,0.40
2019-04-25T13:13:41.318Z,0.50
2019-04-25T13:14:41.754Z,0.40
2019-04-25T13:15:44.256Z,0.40
2019-04-25T13:16:41.306Z,0.60
2019-04-25T13:17:41.297Z,0.50
2019-04-25T13:18:41.261Z,0.50